<?xml version="1.0" encoding="utf-8"?>
<gpx xmlns:xsi="http://www.w3.org/2001/XMLSchema-instance" xmlns:xsd="http://www.w3.org/2001/XMLSchema" version="1.1" creator="Shapelink.com" xmlns="http://www.topografix.com/GPX/1/1" xmlns:gpxtpx="http://www.garmin.com/xmlschemas/TrackPointExtension/v1">
  <metadata>
    <name>Övrigt 1.01 km, 2020-06-02</name>
    <desc></desc>
    <author><name>Marian Moron</name></author> 
    <time>2020-06-02T17:19:48Z</time>
  </metadata>
  <trk>
    <name>Övrigt 1.01 km, 2020-06-02</name>
    <trkseg>
      <trkpt lat="51.229817575078" lon="4.457670775176">
        <ele>0</ele>
        <time>2020-06-02T17:19:48Z</time>
      </trkpt>
      <trkpt lat="51.229844397158" lon="4.456974826019">
        <ele>0</ele>
        <time>2020-06-02T17:20:30Z</time>
      </trkpt>
      <trkpt lat="51.23027589737" lon="4.456716076766">
        <ele>0</ele>
        <time>2020-06-02T17:21:18Z</time>
      </trkpt>
      <trkpt lat="51.230699518596" lon="4.456430924528">
        <ele>1.2</ele>
        <time>2020-06-02T17:22:06Z</time>
      </trkpt>
      <trkpt lat="51.230737907698" lon="4.456368395554">
        <ele>1.6</ele>
        <time>2020-06-02T17:22:12Z</time>
      </trkpt>
      <trkpt lat="51.230988442689" lon="4.456114340165">
        <ele>3.8</ele>
        <time>2020-06-02T17:22:43Z</time>
      </trkpt>
      <trkpt lat="51.231067819282" lon="4.455971093494">
        <ele>2.4</ele>
        <time>2020-06-02T17:23:12Z</time>
      </trkpt>
      <trkpt lat="51.231086594738" lon="4.455994143719">
        <ele>2.2</ele>
        <time>2020-06-02T17:23:14Z</time>
      </trkpt>
      <trkpt lat="51.231236630748" lon="4.455925160682">
        <ele>3.2</ele>
        <time>2020-06-02T17:23:27Z</time>
      </trkpt>
      <trkpt lat="51.231419607625" lon="4.455210603707">
        <ele>11.4</ele>
        <time>2020-06-02T17:24:10Z</time>
      </trkpt>
      <trkpt lat="51.231374010089" lon="4.454839369356">
        <ele>16</ele>
        <time>2020-06-02T17:24:34Z</time>
      </trkpt>
      <trkpt lat="51.231252221082" lon="4.454433685396">
        <ele>18.2</ele>
        <time>2020-06-02T17:24:58Z</time>
      </trkpt>
      <trkpt lat="51.231075614449" lon="4.454303682127">
        <ele>13.8</ele>
        <time>2020-06-02T17:25:05Z</time>
      </trkpt>
      <trkpt lat="51.230969415776" lon="4.453614354671">
        <ele>9.6</ele>
        <time>2020-06-02T17:25:51Z</time>
      </trkpt>
      <trkpt lat="51.230971930346" lon="4.45318109426">
        <ele>18.4</ele>
        <time>2020-06-02T17:26:18Z</time>
      </trkpt>
      <trkpt lat="51.230914179055" lon="4.453073135388">
        <ele>17</ele>
        <time>2020-06-02T17:26:25Z</time>
      </trkpt>
      <trkpt lat="51.230883920396" lon="4.452902060809">
        <ele>18.8</ele>
        <time>2020-06-02T17:26:37Z</time>
      </trkpt>
      <trkpt lat="51.230899007816" lon="4.452808015891">
        <ele>20.2</ele>
        <time>2020-06-02T17:26:44Z</time>
      </trkpt>
      <trkpt lat="51.230938821841" lon="4.452589415939">
        <ele>23.2</ele>
        <time>2020-06-02T17:26:56Z</time>
      </trkpt>
      <trkpt lat="51.230908898458" lon="4.452531748467">
        <ele>24.6</ele>
        <time>2020-06-02T17:27:00Z</time>
      </trkpt>
      <trkpt lat="51.230922225679" lon="4.452496712125">
        <ele>24.4</ele>
        <time>2020-06-02T17:27:02Z</time>
      </trkpt>
      <trkpt lat="51.230900851834" lon="4.452447258915">
        <ele>24.6</ele>
        <time>2020-06-02T17:27:06Z</time>
      </trkpt>
      <trkpt lat="51.230873694478" lon="4.452418844274">
        <ele>25.4</ele>
        <time>2020-06-02T17:27:09Z</time>
      </trkpt>
      <trkpt lat="51.230882160197" lon="4.452244668392">
        <ele>25.4</ele>
        <time>2020-06-02T17:27:18Z</time>
      </trkpt>
      <trkpt lat="51.230874281211" lon="4.452124220489">
        <ele>24.8</ele>
        <time>2020-06-02T17:27:26Z</time>
      </trkpt>
      <trkpt lat="51.230883249844" lon="4.452075437831">
        <ele>24.2</ele>
        <time>2020-06-02T17:27:28Z</time>
      </trkpt>
      <trkpt lat="51.230863300922" lon="4.451988768985">
        <ele>22</ele>
        <time>2020-06-02T17:27:33Z</time>
      </trkpt>
      <trkpt lat="51.230827007295" lon="4.45193135297">
        <ele>23.8</ele>
        <time>2020-06-02T17:27:37Z</time>
      </trkpt>
      <trkpt lat="51.230839244869" lon="4.451892712411">
        <ele>23.8</ele>
        <time>2020-06-02T17:27:39Z</time>
      </trkpt>
      <trkpt lat="51.230803035061" lon="4.451791291421">
        <ele>21</ele>
        <time>2020-06-02T17:27:45Z</time>
      </trkpt>
      <trkpt lat="51.230754084765" lon="4.451727756619">
        <ele>23</ele>
        <time>2020-06-02T17:27:49Z</time>
      </trkpt>
      <trkpt lat="51.230760622647" lon="4.451688361689">
        <ele>22.8</ele>
        <time>2020-06-02T17:27:51Z</time>
      </trkpt>
      <trkpt lat="51.230739584078" lon="4.45163211914">
        <ele>22.2</ele>
        <time>2020-06-02T17:27:54Z</time>
      </trkpt>
      <trkpt lat="51.230634475052" lon="4.45161284077">
        <ele>17.6</ele>
        <time>2020-06-02T17:27:56Z</time>
      </trkpt>
      <trkpt lat="51.23057345482" lon="4.451520723689">
        <ele>14.2</ele>
        <time>2020-06-02T17:28:01Z</time>
      </trkpt>
      <trkpt lat="51.230563983273" lon="4.451385020728">
        <ele>10.2</ele>
        <time>2020-06-02T17:28:07Z</time>
      </trkpt>
      <trkpt lat="51.230545626912" lon="4.451341183391">
        <ele>11.2</ele>
        <time>2020-06-02T17:28:09Z</time>
      </trkpt>
      <trkpt lat="51.230535903908" lon="4.451304638307">
        <ele>11</ele>
        <time>2020-06-02T17:28:11Z</time>
      </trkpt>
      <trkpt lat="51.230533724614" lon="4.451264824282">
        <ele>11</ele>
        <time>2020-06-02T17:28:13Z</time>
      </trkpt>
      <trkpt lat="51.230519475384" lon="4.451074387514">
        <ele>13.2</ele>
        <time>2020-06-02T17:28:24Z</time>
      </trkpt>
      <trkpt lat="51.230471782373" lon="4.451016133309">
        <ele>13.8</ele>
        <time>2020-06-02T17:28:31Z</time>
      </trkpt>
      <trkpt lat="51.230332223738" lon="4.450972379791">
        <ele>8.4</ele>
        <time>2020-06-02T17:28:39Z</time>
      </trkpt>
      <trkpt lat="51.230273215162" lon="4.450962572968">
        <ele>4.4</ele>
        <time>2020-06-02T17:28:42Z</time>
      </trkpt>
      <trkpt lat="51.230153605449" lon="4.450958717294">
        <ele>0</ele>
        <time>2020-06-02T17:28:53Z</time>
      </trkpt>
      <trkpt lat="51.230136506373" lon="4.450916472518">
        <ele>0</ele>
        <time>2020-06-02T17:28:58Z</time>
      </trkpt>
      <trkpt lat="51.229992337693" lon="4.450890572447">
        <ele>0</ele>
        <time>2020-06-02T17:29:16Z</time>
      </trkpt>
      <trkpt lat="51.229961995215" lon="4.450886800592">
        <ele>0</ele>
        <time>2020-06-02T17:29:19Z</time>
      </trkpt>
      <trkpt lat="51.229872225066" lon="4.450916975432">
        <ele>0</ele>
        <time>2020-06-02T17:29:27Z</time>
      </trkpt>
      <trkpt lat="51.22973275025" lon="4.45092384859">
        <ele>0</ele>
        <time>2020-06-02T17:29:52Z</time>
      </trkpt>
      <trkpt lat="51.229728643119" lon="4.450906581876">
        <ele>0</ele>
        <time>2020-06-02T17:29:54Z</time>
      </trkpt>
      <trkpt lat="51.2297285593" lon="4.450869198602">
        <ele>0</ele>
        <time>2020-06-02T17:29:57Z</time>
      </trkpt>
      <trkpt lat="51.229710705853" lon="4.450823601066">
        <ele>0</ele>
        <time>2020-06-02T17:30:00Z</time>
      </trkpt>
      <trkpt lat="51.229647003413" lon="4.450715390737">
        <ele>0</ele>
        <time>2020-06-02T17:30:08Z</time>
      </trkpt>
      <trkpt lat="51.229679692823" lon="4.450662165672">
        <ele>2.2</ele>
        <time>2020-06-02T17:30:13Z</time>
      </trkpt>
      <trkpt lat="51.229711963138" lon="4.450599888155">
        <ele>8.2</ele>
        <time>2020-06-02T17:30:16Z</time>
      </trkpt>
      <trkpt lat="51.229726128549" lon="4.450579436319">
        <ele>13</ele>
        <time>2020-06-02T17:30:18Z</time>
      </trkpt>
      <trkpt lat="51.229728810757" lon="4.450563343071">
        <ele>18</ele>
        <time>2020-06-02T17:30:20Z</time>
      </trkpt>
      <trkpt lat="51.229756471027" lon="4.450519086639">
        <ele>22</ele>
        <time>2020-06-02T17:30:22Z</time>
      </trkpt>
      <trkpt lat="51.229745155462" lon="4.450475836035">
        <ele>26</ele>
        <time>2020-06-02T17:30:25Z</time>
      </trkpt>
      <trkpt lat="51.229749094955" lon="4.45043350744">
        <ele>27.8</ele>
        <time>2020-06-02T17:30:27Z</time>
      </trkpt>
      <trkpt lat="51.229793183749" lon="4.450299061764">
        <ele>34.4</ele>
        <time>2020-06-02T17:30:36Z</time>
      </trkpt>
      <trkpt lat="51.229828639186" lon="4.45020719614">
        <ele>41</ele>
        <time>2020-06-02T17:30:42Z</time>
      </trkpt>
      <trkpt lat="51.229870548686" lon="4.450134860343">
        <ele>44.4</ele>
        <time>2020-06-02T17:30:46Z</time>
      </trkpt>
      <trkpt lat="51.229869039944" lon="4.450071241722">
        <ele>43.8</ele>
        <time>2020-06-02T17:30:49Z</time>
      </trkpt>
      <trkpt lat="51.229879265862" lon="4.449999492658">
        <ele>47.4</ele>
        <time>2020-06-02T17:30:54Z</time>
      </trkpt>
      <trkpt lat="51.229752280077" lon="4.449938807702">
        <ele>41.6</ele>
        <time>2020-06-02T17:31:00Z</time>
      </trkpt>
      <trkpt lat="51.229727804929" lon="4.449906369749">
        <ele>39.4</ele>
        <time>2020-06-02T17:31:02Z</time>
      </trkpt>
      <trkpt lat="51.229735767734" lon="4.449830597373">
        <ele>37.2</ele>
        <time>2020-06-02T17:31:06Z</time>
      </trkpt>
      <trkpt lat="51.229717830468" lon="4.449796818316">
        <ele>35.6</ele>
        <time>2020-06-02T17:31:08Z</time>
      </trkpt>
      <trkpt lat="51.229683464678" lon="4.449765553829">
        <ele>33.8</ele>
        <time>2020-06-02T17:31:12Z</time>
      </trkpt>
      <trkpt lat="51.229580618765" lon="4.449515270295">
        <ele>16.2</ele>
        <time>2020-06-02T17:31:30Z</time>
      </trkpt>
      <trkpt lat="51.229528902442" lon="4.449437234806">
        <ele>14</ele>
        <time>2020-06-02T17:31:36Z</time>
      </trkpt>
      <trkpt lat="51.229507780054" lon="4.449375292565">
        <ele>14.4</ele>
        <time>2020-06-02T17:31:42Z</time>
      </trkpt>
      <trkpt lat="51.229492524996" lon="4.449313517962">
        <ele>14.4</ele>
        <time>2020-06-02T17:31:46Z</time>
      </trkpt>
      <trkpt lat="51.229453549161" lon="4.449231375342">
        <ele>19.8</ele>
        <time>2020-06-02T17:31:53Z</time>
      </trkpt>
      <trkpt lat="51.229405939969" lon="4.449076645468">
        <ele>21.2</ele>
        <time>2020-06-02T17:32:01Z</time>
      </trkpt>
      <trkpt lat="51.229100252076" lon="4.448635673709">
        <ele>19</ele>
        <time>2020-06-02T17:32:49Z</time>
      </trkpt>
      <trkpt lat="51.22889958939" lon="4.44859200401">
        <ele>0</ele>
        <time>2020-06-02T17:33:32Z</time>
      </trkpt>
      <trkpt lat="51.228843849755" lon="4.448717061958">
        <ele>0</ele>
        <time>2020-06-02T17:33:45Z</time>
      </trkpt>
      <trkpt lat="51.228574623127" lon="4.449256185766">
        <ele>0</ele>
        <time>2020-06-02T17:34:38Z</time>
      </trkpt>
      <trkpt lat="51.228564397209" lon="4.449267249874">
        <ele>0</ele>
        <time>2020-06-02T17:34:39Z</time>
      </trkpt>
    </trkseg>
  </trk>
</gpx>